This is the latest recevied weather packets stored in our database for station/object DB0SWS-6. If no packets are shown the sender has not sent any weather packets the latest 10 day(s).
| Time | Temp. | Humidity | Pressure | Rain* | Wind** | Luminosity | Snow |
|---|---|---|---|---|---|---|---|
| 1778022209 | 11.11° C | 99% | 954.8 hPa | 0 mm | - | - | - |
| 1778020410 | 11.11° C | 99% | 954.8 hPa | 0 mm | - | - | - |
| 1778018611 | 11.11° C | 99% | 954.8 hPa | 0 mm | - | - | - |
| 1778016811 | 11.11° C | 99% | 954.7 hPa | 0 mm | - | - | - |
| 1778015009 | 11.67° C | 99% | 954.7 hPa | 0 mm | - | - | - |
| 1778013209 | 11.67° C | 99% | 954.5 hPa | 0 mm | - | - | - |
| 1778011409 | 11.67° C | 99% | 954.4 hPa | 0 mm | - | - | - |
| 1778007811 | 11.67° C | 99% | 954.2 hPa | 0 mm | - | - | - |
| 1778006011 | 12.22° C | 99% | 954 hPa | 0 mm | - | - | - |
| 1778004210 | 12.22° C | 97% | 954 hPa | 0.25 mm | - | - | - |
| 1778002409 | 12.78° C | 96% | 954 hPa | 0.51 mm | - | - | - |
| 1778000610 | 12.22° C | 98% | 953.9 hPa | 2.79 mm | - | - | - |
| 1777998810 | 13.33° C | 97% | 953.5 hPa | 2.79 mm | - | - | - |
| 1777997009 | 15° C | 87% | 953.7 hPa | 0.25 mm | - | - | - |
| 1777995209 | 15.56° C | 86% | 953.5 hPa | 0 mm | - | - | - |
| 1777993410 | 16.11° C | 85% | 953.3 hPa | 0 mm | - | - | - |
| 1777991611 | 15.56° C | 86% | 953.8 hPa | 0 mm | - | - | - |
| 1777989811 | 15° C | 91% | 953.9 hPa | 0 mm | - | - | - |
| 1777988010 | 14.44° C | 94% | 954.3 hPa | 0 mm | - | - | - |
| 1777986213 | 14.44° C | 91% | 954.6 hPa | 0.25 mm | - | - | - |
| 1777984410 | 14.44° C | 92% | 954.8 hPa | 0.25 mm | - | - | - |
| 1777982610 | 14.44° C | 92% | 955.1 hPa | 0.25 mm | - | - | - |
| 1777979010 | 15° C | 84% | 954.9 hPa | 0 mm | - | - | - |
| 1777973610 | 15.56° C | 80% | 955.2 hPa | 0 mm | - | - | - |
| 1777971810 | 15° C | 81% | 955.6 hPa | 0 mm | - | - | - |
* Rain latest hour (hover to see other rain measurements)
** Current wind speed in m/s (hover to see current wind gust speed)